createdAt,value
2023-04-15T06:30:37.917Z,24.13
2023-04-15T06:33:08.064Z,23.40
2023-04-15T06:35:34.853Z,15.43
2023-04-15T06:38:01.774Z,21.98
2023-04-15T06:40:52.612Z,22.95
2023-04-15T06:43:24.362Z,21.83
2023-04-15T06:45:51.248Z,25.08
2023-04-15T06:48:18.465Z,21.65
2023-04-15T06:50:45.330Z,21.90
2023-04-15T06:53:12.399Z,24.45
2023-04-15T06:55:51.595Z,15.70
2023-04-15T06:58:23.034Z,23.77
2023-04-15T07:00:53.393Z,20.83
2023-04-15T07:03:20.432Z,22.98
2023-04-15T07:05:47.271Z,24.65
2023-04-15T07:08:14.079Z,24.75
2023-04-15T07:10:41.602Z,20.27
2023-04-15T07:13:08.972Z,22.73
2023-04-15T07:15:39.064Z,24.83
2023-04-15T07:18:06.001Z,27.02
2023-04-15T07:20:40.463Z,27.88
2023-04-15T07:23:08.002Z,27.23
2023-04-15T07:25:34.822Z,26.08
2023-04-15T07:28:02.484Z,22.80
2023-04-15T07:30:29.553Z,27.90
2023-04-15T07:32:56.431Z,25.58
2023-04-15T07:35:23.539Z,29.02
2023-04-15T07:37:50.550Z,31.75
2023-04-15T07:40:27.565Z,30.90
2023-04-15T07:42:56.364Z,31.23
2023-04-15T07:45:32.435Z,35.38
2023-04-15T07:47:59.361Z,27.48
2023-04-15T07:50:39.261Z,33.97
2023-04-15T07:53:07.507Z,32.45
2023-04-15T07:55:41.680Z,48.70
2023-04-15T07:58:23.346Z,42.25
2023-04-15T08:00:50.366Z,50.58
2023-04-15T08:03:17.440Z,48.67
2023-04-15T08:05:44.720Z,47.00
2023-04-15T08:08:11.587Z,49.72
2023-04-15T08:10:52.375Z,39.58
2023-04-15T08:13:19.553Z,49.47
2023-04-15T08:15:46.685Z,47.45
2023-04-15T08:18:13.546Z,54.17
2023-04-15T08:20:40.850Z,51.05
2023-04-15T08:23:07.644Z,44.25
2023-04-15T08:25:34.428Z,51.95
2023-04-15T08:28:07.122Z,61.22
2023-04-15T08:30:34.576Z,46.80
2023-04-15T08:33:01.426Z,54.92
2023-04-15T08:35:28.325Z,49.30
2023-04-15T08:37:55.027Z,65.60
2023-04-15T08:40:26.488Z,46.45
2023-04-15T08:42:55.998Z,44.25
2023-04-15T08:45:23.513Z,51.75
2023-04-15T08:47:55.837Z,46.97
2023-04-15T08:50:23.660Z,50.17
2023-04-15T08:52:53.601Z,60.33
2023-04-15T08:55:21.560Z,59.50
2023-04-15T08:57:48.429Z,57.20
2023-04-15T09:00:15.649Z,53.92
2023-04-15T09:02:43.833Z,64.22
2023-04-15T09:05:10.696Z,62.40
2023-04-15T09:07:37.549Z,59.67
2023-04-15T09:10:05.418Z,67.80
2023-04-15T09:12:37.594Z,51.33
2023-04-15T09:15:04.940Z,71.07
2023-04-15T09:17:33.489Z,76.25
2023-04-15T09:20:11.269Z,62.08
2023-04-15T09:22:38.790Z,58.33
2023-04-15T09:25:26.849Z,55.30
2023-04-15T09:27:59.044Z,53.83
2023-04-15T09:30:26.474Z,53.90
2023-04-15T09:32:58.029Z,70.28
2023-04-15T09:35:26.359Z,62.17
2023-04-15T09:37:53.835Z,44.30
2023-04-15T09:40:37.136Z,58.63
2023-04-15T09:43:05.318Z,56.05
2023-04-15T09:45:33.702Z,51.17
2023-04-15T09:48:21.486Z,43.75
2023-04-15T09:50:49.660Z,53.33
2023-04-15T09:53:24.412Z,48.53
2023-04-15T09:56:00.769Z,48.75
2023-04-15T09:58:33.557Z,46.97
2023-04-15T10:01:04.657Z,41.97
2023-04-15T10:03:37.579Z,42.70
2023-04-15T10:06:07.918Z,44.53
2023-04-15T10:08:35.099Z,45.78
2023-04-15T10:11:06.709Z,48.28
2023-04-15T10:13:38.211Z,49.63
2023-04-15T10:16:13.324Z,54.88
2023-04-15T10:18:44.160Z,51.08
2023-04-15T10:21:14.000Z,38.85
2023-04-15T10:23:41.335Z,51.45
2023-04-15T10:26:09.381Z,46.10
2023-04-15T10:28:36.237Z,44.15
2023-04-15T10:31:05.998Z,41.60
2023-04-15T10:33:34.232Z,45.88
2023-04-15T10:36:01.857Z,47.13
2023-04-15T10:39:09.165Z,42.78
2023-04-15T10:41:38.506Z,44.53
2023-04-15T10:44:05.716Z,41.17
2023-04-15T10:46:41.538Z,51.78
2023-04-15T10:49:17.529Z,50.33
2023-04-15T10:51:47.576Z,49.20
2023-04-15T10:54:24.905Z,51.67
2023-04-15T10:57:03.574Z,38.97
2023-04-15T10:59:37.961Z,42.60
2023-04-15T11:02:08.571Z,49.63
2023-04-15T11:04:54.445Z,49.15
2023-04-15T11:07:55.246Z,45.88
2023-04-15T11:10:31.321Z,43.13
2023-04-15T11:13:00.021Z,37.73
2023-04-15T11:15:36.116Z,42.78
2023-04-15T11:18:19.086Z,48.40
2023-04-15T11:20:50.991Z,40.78
2023-04-15T11:23:19.960Z,36.33
2023-04-15T11:25:46.690Z,40.67
2023-04-15T11:28:13.761Z,42.72
2023-04-15T11:31:40.142Z,50.13
2023-04-15T11:34:07.171Z,48.35
2023-04-15T11:36:34.117Z,46.33
2023-04-15T11:39:00.932Z,43.90
2023-04-15T11:41:29.442Z,44.90
2023-04-15T11:43:56.286Z,42.40
2023-04-15T11:46:30.706Z,46.78
2023-04-15T11:48:57.507Z,37.75
2023-04-15T11:51:24.290Z,42.72
2023-04-15T11:53:52.143Z,43.85
2023-04-15T11:56:24.062Z,43.65
2023-04-15T11:59:02.178Z,41.53
2023-04-15T12:01:46.721Z,39.58
2023-04-15T12:04:15.992Z,44.30
2023-04-15T12:06:45.650Z,42.72
2023-04-15T12:09:20.263Z,44.17
2023-04-15T12:11:53.795Z,37.47
2023-04-15T12:14:24.808Z,40.90
2023-04-15T12:17:01.520Z,36.85
2023-04-15T12:19:34.742Z,45.03
2023-04-15T12:22:04.122Z,44.03
2023-04-15T12:24:36.038Z,39.20
2023-04-15T12:27:07.976Z,45.15
2023-04-15T12:29:37.487Z,42.60
2023-04-15T12:32:11.435Z,48.55
2023-04-15T12:34:42.461Z,46.05
2023-04-15T12:37:14.247Z,42.20
2023-04-15T12:39:43.249Z,43.00
2023-04-15T12:42:10.950Z,44.42
2023-04-15T12:44:39.019Z,50.45
2023-04-15T12:47:12.415Z,43.35
2023-04-15T12:49:42.577Z,49.75
2023-04-15T12:52:09.669Z,46.65
2023-04-15T12:54:36.705Z,43.25
2023-04-15T12:57:06.854Z,48.85
2023-04-15T12:59:38.002Z,50.65
2023-04-15T13:02:05.132Z,48.03
2023-04-15T13:04:35.425Z,53.83
2023-04-15T13:07:02.565Z,51.72
2023-04-15T13:09:29.424Z,50.00
2023-04-15T13:11:57.667Z,52.65
2023-04-15T13:14:24.589Z,50.85
2023-04-15T13:16:51.443Z,51.85
2023-04-15T13:19:18.262Z,54.65
2023-04-15T13:21:45.014Z,43.63
2023-04-15T13:24:11.895Z,52.13
2023-04-15T13:26:38.675Z,52.00
2023-04-15T13:29:05.589Z,58.60
2023-04-15T13:31:32.576Z,60.30
2023-04-15T13:33:59.411Z,49.20
2023-04-15T13:36:27.369Z,55.97
2023-04-15T13:38:54.406Z,56.55
2023-04-15T13:41:21.433Z,55.60
2023-04-15T13:43:48.245Z,58.17
2023-04-15T13:46:15.234Z,54.40
2023-04-15T13:48:42.681Z,55.78
2023-04-15T13:51:09.762Z,55.78
2023-04-15T13:53:38.882Z,56.60
2023-04-15T13:56:10.100Z,53.78
2023-04-15T13:58:38.072Z,54.20
2023-04-15T14:01:06.795Z,58.17
2023-04-15T14:03:38.033Z,56.80
2023-04-15T14:06:06.353Z,55.47
2023-04-15T14:08:33.559Z,55.63
2023-04-15T14:11:00.623Z,54.88
2023-04-15T14:13:27.667Z,56.50
2023-04-15T14:15:54.913Z,56.83
2023-04-15T14:18:21.794Z,58.08
2023-04-15T14:20:48.744Z,56.40
2023-04-15T14:23:15.640Z,59.00
2023-04-15T14:25:42.602Z,62.35
2023-04-15T14:28:09.426Z,59.88
2023-04-15T14:30:36.441Z,62.20
2023-04-15T14:33:04.224Z,59.20
2023-04-15T14:35:31.382Z,60.53
2023-04-15T14:37:58.389Z,58.70
2023-04-15T14:40:25.250Z,59.92
2023-04-15T14:42:52.341Z,58.63
2023-04-15T14:45:20.571Z,61.83
2023-04-15T14:47:47.576Z,57.00
2023-04-15T14:50:14.670Z,60.10
2023-04-15T14:52:41.773Z,58.42
2023-04-15T14:55:13.216Z,58.05
2023-04-15T14:57:41.318Z,63.35
2023-04-15T15:00:14.485Z,62.60
2023-04-15T15:02:43.088Z,57.78
2023-04-15T15:05:11.997Z,54.97
2023-04-15T15:07:41.166Z,51.05
2023-04-15T15:10:08.696Z,59.20
2023-04-15T15:12:35.904Z,54.22
2023-04-15T15:15:12.336Z,58.63
2023-04-15T15:17:46.929Z,55.58
2023-04-15T15:20:13.992Z,55.63
2023-04-15T15:22:41.068Z,57.50
2023-04-15T15:25:08.124Z,50.95
2023-04-15T15:27:37.058Z,54.95
2023-04-15T15:30:06.765Z,53.20
2023-04-15T15:32:33.742Z,52.83
2023-04-15T15:35:00.759Z,53.78
2023-04-15T15:37:27.679Z,52.75
2023-04-15T15:39:54.532Z,49.33
2023-04-15T15:42:22.311Z,50.65
2023-04-15T15:44:50.305Z,49.15
2023-04-15T15:47:17.333Z,48.88
2023-04-15T15:49:44.290Z,45.05
2023-04-15T15:52:11.804Z,48.33
2023-04-15T15:54:40.221Z,45.83
2023-04-15T15:57:07.554Z,44.20
2023-04-15T15:59:34.437Z,41.53
2023-04-15T16:02:02.903Z,41.72
2023-04-15T16:04:32.749Z,43.47
2023-04-15T16:06:59.755Z,41.80
2023-04-15T16:09:26.555Z,39.85
2023-04-15T16:11:53.458Z,40.08
2023-04-15T16:14:21.400Z,40.72
2023-04-15T16:16:48.291Z,42.13
2023-04-15T16:19:15.305Z,41.60
2023-04-15T16:21:42.737Z,37.97
2023-04-15T16:24:09.611Z,42.70
2023-04-15T16:26:36.769Z,41.35
2023-04-15T16:29:04.290Z,42.72
2023-04-15T16:31:31.416Z,39.65
2023-04-15T16:33:58.491Z,39.50
2023-04-15T16:36:28.721Z,38.95
2023-04-15T16:38:56.015Z,37.80
2023-04-15T16:41:22.853Z,40.33
2023-04-15T16:43:50.076Z,38.63
2023-04-15T16:46:19.334Z,40.70
2023-04-15T16:48:46.476Z,41.53
2023-04-15T16:51:13.479Z,39.47
2023-04-15T16:53:40.555Z,42.38
2023-04-15T16:56:07.844Z,38.60
2023-04-15T16:58:35.303Z,38.17
2023-04-15T17:01:02.529Z,41.25
2023-04-15T17:03:29.687Z,41.10
2023-04-15T17:05:56.744Z,41.88
2023-04-15T17:08:23.812Z,43.03
2023-04-15T17:10:51.893Z,42.55
2023-04-15T17:13:18.964Z,46.22
2023-04-15T17:15:45.910Z,45.53
2023-04-15T17:18:12.746Z,44.05
2023-04-15T17:20:39.880Z,46.08
2023-04-15T17:23:06.989Z,41.22
2023-04-15T17:25:33.929Z,46.40
2023-04-15T17:28:01.329Z,47.42
2023-04-15T17:30:28.201Z,42.70
2023-04-15T17:32:58.409Z,48.90
2023-04-15T17:35:26.251Z,49.88
2023-04-15T17:37:53.064Z,47.58
2023-04-15T17:40:21.262Z,46.67
2023-04-15T17:42:48.164Z,51.47
2023-04-15T17:45:15.154Z,50.08
2023-04-15T17:47:42.055Z,50.05
2023-04-15T17:50:09.324Z,49.28
2023-04-15T17:52:36.395Z,53.65
2023-04-15T17:55:03.268Z,51.60
2023-04-15T17:57:30.356Z,51.35
2023-04-15T17:59:57.193Z,54.65
2023-04-15T18:02:24.338Z,56.50
2023-04-15T18:04:51.404Z,59.72
2023-04-15T18:07:18.405Z,54.88
2023-04-15T18:09:45.797Z,55.70
2023-04-15T18:12:12.713Z,55.65
2023-04-15T18:14:39.516Z,61.42
2023-04-15T18:17:07.586Z,61.75
2023-04-15T18:19:34.485Z,57.63
2023-04-15T18:22:01.388Z,62.83
2023-04-15T18:24:28.726Z,58.28
2023-04-15T18:26:56.444Z,71.40
2023-04-15T18:29:23.508Z,67.60
2023-04-15T18:31:50.730Z,67.57
2023-04-15T18:34:17.784Z,65.22
2023-04-15T18:36:44.727Z,64.72
2023-04-15T18:39:11.928Z,61.60
2023-04-15T18:41:38.962Z,66.07
2023-04-15T18:44:06.306Z,64.32
2023-04-15T18:46:33.909Z,62.65
2023-04-15T18:49:01.448Z,64.70
2023-04-15T18:51:28.876Z,70.72
2023-04-15T18:53:56.039Z,66.07
2023-04-15T18:56:23.074Z,67.40
2023-04-15T18:59:08.930Z,64.80
2023-04-15T19:01:39.259Z,62.97
2023-04-15T19:04:06.844Z,67.55
2023-04-15T19:06:37.029Z,68.97
2023-04-15T19:09:04.473Z,78.30
2023-04-15T19:11:31.653Z,78.13
2023-04-15T19:13:59.019Z,71.03
2023-04-15T19:16:29.054Z,73.47
2023-04-15T19:18:56.265Z,62.72
2023-04-15T19:21:23.260Z,56.65
2023-04-15T19:23:50.615Z,69.25
2023-04-15T19:26:17.589Z,64.60
2023-04-15T19:28:44.662Z,71.55
2023-04-15T19:31:12.100Z,66.95
2023-04-15T19:33:41.575Z,71.72
2023-04-15T19:36:08.565Z,69.03
2023-04-15T19:38:36.340Z,62.20
2023-04-15T19:41:03.847Z,56.05
2023-04-15T19:43:33.412Z,63.13
2023-04-15T19:46:03.111Z,59.13
2023-04-15T19:48:34.736Z,69.85
2023-04-15T19:54:43.846Z,69.68
